sensor_id;sensor_type;location;lat;lon;timestamp;P1;durP1;ratioP1;P2;durP2;ratioP2
3257;SDS011;1641;51.306;12.384;2023-08-07T00:01:14;6.35;;;3.50;;
3257;SDS011;1641;51.306;12.384;2023-08-07T00:03:39;4.13;;;3.72;;
3257;SDS011;1641;51.306;12.384;2023-08-07T00:06:04;4.15;;;3.72;;
3257;SDS011;1641;51.306;12.384;2023-08-07T00:08:30;5.65;;;4.05;;
3257;SDS011;1641;51.306;12.384;2023-08-07T00:11:06;7.57;;;4.35;;
3257;SDS011;1641;51.306;12.384;2023-08-07T00:13:32;4.40;;;4.00;;
3257;SDS011;1641;51.306;12.384;2023-08-07T00:15:58;4.72;;;3.55;;
3257;SDS011;1641;51.306;12.384;2023-08-07T00:18:23;4.30;;;3.67;;
3257;SDS011;1641;51.306;12.384;2023-08-07T00:20:51;5.53;;;3.30;;
3257;SDS011;1641;51.306;12.384;2023-08-07T00:23:17;8.25;;;3.63;;
3257;SDS011;1641;51.306;12.384;2023-08-07T00:25:42;3.42;;;3.13;;
3257;SDS011;1641;51.306;12.384;2023-08-07T00:28:10;5.10;;;3.45;;
3257;SDS011;1641;51.306;12.384;2023-08-07T00:30:36;5.45;;;3.08;;
3257;SDS011;1641;51.306;12.384;2023-08-07T00:33:04;3.80;;;3.05;;
3257;SDS011;1641;51.306;12.384;2023-08-07T00:35:29;4.68;;;3.00;;
3257;SDS011;1641;51.306;12.384;2023-08-07T00:37:55;3.10;;;2.80;;
3257;SDS011;1641;51.306;12.384;2023-08-07T00:40:20;2.92;;;2.63;;
3257;SDS011;1641;51.306;12.384;2023-08-07T00:42:45;3.88;;;3.58;;
3257;SDS011;1641;51.306;12.384;2023-08-07T00:45:10;5.20;;;3.50;;
3257;SDS011;1641;51.306;12.384;2023-08-07T00:47:42;3.75;;;3.42;;
3257;SDS011;1641;51.306;12.384;2023-08-07T00:50:07;3.00;;;2.80;;
3257;SDS011;1641;51.306;12.384;2023-08-07T00:52:33;3.47;;;3.05;;
3257;SDS011;1641;51.306;12.384;2023-08-07T00:54:59;3.58;;;3.30;;
3257;SDS011;1641;51.306;12.384;2023-08-07T00:57:24;4.75;;;3.30;;
3257;SDS011;1641;51.306;12.384;2023-08-07T00:59:57;21.17;;;4.30;;
3257;SDS011;1641;51.306;12.384;2023-08-07T01:02:23;4.22;;;3.15;;
3257;SDS011;1641;51.306;12.384;2023-08-07T01:04:49;3.60;;;3.30;;
3257;SDS011;1641;51.306;12.384;2023-08-07T01:07:15;6.63;;;3.13;;
3257;SDS011;1641;51.306;12.384;2023-08-07T01:09:40;3.55;;;3.25;;
3257;SDS011;1641;51.306;12.384;2023-08-07T01:12:15;7.70;;;3.75;;
3257;SDS011;1641;51.306;12.384;2023-08-07T01:15:04;4.55;;;2.80;;
3257;SDS011;1641;51.306;12.384;2023-08-07T01:17:37;4.55;;;3.50;;
3257;SDS011;1641;51.306;12.384;2023-08-07T01:20:03;4.38;;;2.88;;
3257;SDS011;1641;51.306;12.384;2023-08-07T01:22:30;3.58;;;3.25;;
3257;SDS011;1641;51.306;12.384;2023-08-07T01:24:55;5.53;;;3.33;;
3257;SDS011;1641;51.306;12.384;2023-08-07T01:28:06;3.28;;;2.97;;
3257;SDS011;1641;51.306;12.384;2023-08-07T01:35:51;3.70;;;3.40;;
3257;SDS011;1641;51.306;12.384;2023-08-07T01:38:18;5.10;;;3.33;;
3257;SDS011;1641;51.306;12.384;2023-08-07T01:43:38;3.60;;;3.30;;
3257;SDS011;1641;51.306;12.384;2023-08-07T01:46:13;5.40;;;3.80;;
3257;SDS011;1641;51.306;12.384;2023-08-07T01:48:38;5.07;;;3.47;;
3257;SDS011;1641;51.306;12.384;2023-08-07T01:51:04;6.75;;;3.58;;
3257;SDS011;1641;51.306;12.384;2023-08-07T01:53:29;4.97;;;3.72;;
3257;SDS011;1641;51.306;12.384;2023-08-07T01:55:54;4.53;;;4.10;;
3257;SDS011;1641;51.306;12.384;2023-08-07T01:58:23;8.68;;;3.58;;
3257;SDS011;1641;51.306;12.384;2023-08-07T02:00:51;7.65;;;3.90;;
3257;SDS011;1641;51.306;12.384;2023-08-07T02:03:16;5.15;;;3.28;;
3257;SDS011;1641;51.306;12.384;2023-08-07T02:05:44;3.60;;;3.30;;
3257;SDS011;1641;51.306;12.384;2023-08-07T02:08:10;6.43;;;4.20;;
3257;SDS011;1641;51.306;12.384;2023-08-07T02:10:35;5.10;;;3.70;;
3257;SDS011;1641;51.306;12.384;2023-08-07T02:13:00;3.55;;;3.22;;
3257;SDS011;1641;51.306;12.384;2023-08-07T02:15:26;7.00;;;3.15;;
3257;SDS011;1641;51.306;12.384;2023-08-07T02:17:51;5.65;;;3.85;;
3257;SDS011;1641;51.306;12.384;2023-08-07T02:20:17;3.08;;;2.85;;
3257;SDS011;1641;51.306;12.384;2023-08-07T02:22:45;4.13;;;3.45;;
3257;SDS011;1641;51.306;12.384;2023-08-07T02:25:10;3.92;;;3.58;;
3257;SDS011;1641;51.306;12.384;2023-08-07T02:27:35;4.35;;;3.70;;
3257;SDS011;1641;51.306;12.384;2023-08-07T02:30:01;8.75;;;4.43;;
3257;SDS011;1641;51.306;12.384;2023-08-07T02:32:31;4.15;;;3.35;;
3257;SDS011;1641;51.306;12.384;2023-08-07T02:34:59;3.60;;;3.28;;
3257;SDS011;1641;51.306;12.384;2023-08-07T02:37:25;6.45;;;3.75;;
3257;SDS011;1641;51.306;12.384;2023-08-07T02:39:50;4.40;;;4.00;;
3257;SDS011;1641;51.306;12.384;2023-08-07T02:42:19;4.07;;;3.78;;
3257;SDS011;1641;51.306;12.384;2023-08-07T02:44:50;5.65;;;4.22;;
3257;SDS011;1641;51.306;12.384;2023-08-07T02:47:19;6.97;;;4.35;;
3257;SDS011;1641;51.306;12.384;2023-08-07T02:49:44;4.53;;;4.13;;
3257;SDS011;1641;51.306;12.384;2023-08-07T02:52:09;4.65;;;4.25;;
3257;SDS011;1641;51.306;12.384;2023-08-07T02:54:37;5.95;;;4.60;;
3257;SDS011;1641;51.306;12.384;2023-08-07T02:57:04;5.18;;;4.45;;
3257;SDS011;1641;51.306;12.384;2023-08-07T02:59:29;7.80;;;3.95;;
3257;SDS011;1641;51.306;12.384;2023-08-07T03:01:55;5.07;;;4.20;;
3257;SDS011;1641;51.306;12.384;2023-08-07T03:04:21;4.43;;;3.90;;
3257;SDS011;1641;51.306;12.384;2023-08-07T03:06:56;6.43;;;4.45;;
3257;SDS011;1641;51.306;12.384;2023-08-07T03:09:21;6.28;;;3.80;;
3257;SDS011;1641;51.306;12.384;2023-08-07T03:11:46;6.90;;;3.72;;
3257;SDS011;1641;51.306;12.384;2023-08-07T03:14:11;6.43;;;3.90;;
3257;SDS011;1641;51.306;12.384;2023-08-07T03:16:40;5.78;;;4.25;;
3257;SDS011;1641;51.306;12.384;2023-08-07T03:19:08;5.30;;;4.80;;
3257;SDS011;1641;51.306;12.384;2023-08-07T03:21:34;5.13;;;3.97;;
3257;SDS011;1641;51.306;12.384;2023-08-07T03:23:59;5.65;;;3.90;;
3257;SDS011;1641;51.306;12.384;2023-08-07T03:26:25;4.18;;;3.70;;
3257;SDS011;1641;51.306;12.384;2023-08-07T03:28:51;7.50;;;4.90;;
3257;SDS011;1641;51.306;12.384;2023-08-07T03:31:16;6.53;;;4.32;;
3257;SDS011;1641;51.306;12.384;2023-08-07T03:33:42;5.50;;;4.10;;
3257;SDS011;1641;51.306;12.384;2023-08-07T03:36:07;6.32;;;4.28;;
3257;SDS011;1641;51.306;12.384;2023-08-07T03:38:33;5.70;;;3.90;;
3257;SDS011;1641;51.306;12.384;2023-08-07T03:40:58;5.30;;;4.13;;
3257;SDS011;1641;51.306;12.384;2023-08-07T03:43:23;8.15;;;4.18;;
3257;SDS011;1641;51.306;12.384;2023-08-07T03:45:55;4.28;;;3.50;;
3257;SDS011;1641;51.306;12.384;2023-08-07T03:48:23;5.53;;;3.80;;
3257;SDS011;1641;51.306;12.384;2023-08-07T03:50:49;4.90;;;3.97;;
3257;SDS011;1641;51.306;12.384;2023-08-07T03:53:14;4.60;;;4.20;;
3257;SDS011;1641;51.306;12.384;2023-08-07T03:55:39;5.78;;;4.63;;
3257;SDS011;1641;51.306;12.384;2023-08-07T03:58:06;4.35;;;3.80;;
3257;SDS011;1641;51.306;12.384;2023-08-07T04:00:32;8.70;;;4.22;;
3257;SDS011;1641;51.306;12.384;2023-08-07T04:02:57;4.00;;;3.60;;
3257;SDS011;1641;51.306;12.384;2023-08-07T04:05:22;6.47;;;4.28;;
3257;SDS011;1641;51.306;12.384;2023-08-07T04:07:48;4.45;;;3.90;;
3257;SDS011;1641;51.306;12.384;2023-08-07T04:10:13;6.00;;;3.58;;
3257;SDS011;1641;51.306;12.384;2023-08-07T04:12:54;9.13;;;4.47;;
3257;SDS011;1641;51.306;12.384;2023-08-07T04:15:19;6.20;;;3.90;;
3257;SDS011;1641;51.306;12.384;2023-08-07T04:17:44;4.55;;;4.10;;
3257;SDS011;1641;51.306;12.384;2023-08-07T04:20:10;6.55;;;3.97;;
3257;SDS011;1641;51.306;12.384;2023-08-07T04:22:35;4.82;;;3.70;;
3257;SDS011;1641;51.306;12.384;2023-08-07T04:25:01;6.65;;;4.10;;
3257;SDS011;1641;51.306;12.384;2023-08-07T04:27:27;4.28;;;3.88;;
3257;SDS011;1641;51.306;12.384;2023-08-07T04:29:55;6.35;;;3.83;;
3257;SDS011;1641;51.306;12.384;2023-08-07T04:32:20;3.88;;;3.42;;
3257;SDS011;1641;51.306;12.384;2023-08-07T04:34:52;10.95;;;4.05;;
3257;SDS011;1641;51.306;12.384;2023-08-07T04:37:17;3.35;;;3.05;;
3257;SDS011;1641;51.306;12.384;2023-08-07T04:39:42;4.00;;;3.03;;
3257;SDS011;1641;51.306;12.384;2023-08-07T04:42:08;5.68;;;4.13;;
3257;SDS011;1641;51.306;12.384;2023-08-07T04:44:36;3.83;;;2.78;;
3257;SDS011;1641;51.306;12.384;2023-08-07T04:47:05;5.70;;;3.20;;
3257;SDS011;1641;51.306;12.384;2023-08-07T04:49:33;3.85;;;2.97;;
3257;SDS011;1641;51.306;12.384;2023-08-07T04:51:59;2.55;;;2.35;;
3257;SDS011;1641;51.306;12.384;2023-08-07T04:54:24;2.00;;;1.83;;
3257;SDS011;1641;51.306;12.384;2023-08-07T04:56:49;4.63;;;2.55;;
3257;SDS011;1641;51.306;12.384;2023-08-07T04:59:15;3.25;;;2.58;;
3257;SDS011;1641;51.306;12.384;2023-08-07T05:01:40;2.85;;;1.98;;
3257;SDS011;1641;51.306;12.384;2023-08-07T05:04:05;3.13;;;1.90;;
3257;SDS011;1641;51.306;12.384;2023-08-07T05:06:31;3.92;;;2.28;;
3257;SDS011;1641;51.306;12.384;2023-08-07T05:08:56;2.10;;;1.90;;
3257;SDS011;1641;51.306;12.384;2023-08-07T05:11:21;4.20;;;2.00;;
3257;SDS011;1641;51.306;12.384;2023-08-07T05:13:47;3.28;;;2.03;;
3257;SDS011;1641;51.306;12.384;2023-08-07T05:19:00;2.40;;;2.20;;
3257;SDS011;1641;51.306;12.384;2023-08-07T05:21:28;3.65;;;2.10;;
3257;SDS011;1641;51.306;12.384;2023-08-07T05:23:54;3.47;;;1.98;;
3257;SDS011;1641;51.306;12.384;2023-08-07T05:26:29;4.97;;;2.08;;
3257;SDS011;1641;51.306;12.384;2023-08-07T05:28:55;3.25;;;2.20;;
3257;SDS011;1641;51.306;12.384;2023-08-07T05:31:22;7.72;;;1.70;;
3257;SDS011;1641;51.306;12.384;2023-08-07T05:33:49;4.07;;;2.17;;
3257;SDS011;1641;51.306;12.384;2023-08-07T05:36:14;2.10;;;1.92;;
3257;SDS011;1641;51.306;12.384;2023-08-07T05:38:39;2.97;;;1.67;;
3257;SDS011;1641;51.306;12.384;2023-08-07T05:41:05;2.17;;;1.77;;
3257;SDS011;1641;51.306;12.384;2023-08-07T05:43:30;3.67;;;2.10;;
3257;SDS011;1641;51.306;12.384;2023-08-07T05:45:55;3.83;;;1.73;;
3257;SDS011;1641;51.306;12.384;2023-08-07T05:48:21;8.43;;;2.00;;
3257;SDS011;1641;51.306;12.384;2023-08-07T05:50:46;3.00;;;2.10;;
3257;SDS011;1641;51.306;12.384;2023-08-07T05:53:11;3.28;;;2.28;;
3257;SDS011;1641;51.306;12.384;2023-08-07T05:55:38;3.35;;;2.28;;
3257;SDS011;1641;51.306;12.384;2023-08-07T05:58:06;3.10;;;2.03;;
3257;SDS011;1641;51.306;12.384;2023-08-07T06:00:31;2.88;;;2.58;;
3257;SDS011;1641;51.306;12.384;2023-08-07T06:02:57;3.00;;;2.70;;
3257;SDS011;1641;51.306;12.384;2023-08-07T06:05:23;3.45;;;2.17;;
3257;SDS011;1641;51.306;12.384;2023-08-07T06:07:49;3.17;;;2.20;;
3257;SDS011;1641;51.306;12.384;2023-08-07T06:10:14;3.08;;;1.95;;
3257;SDS011;1641;51.306;12.384;2023-08-07T06:12:40;4.93;;;2.30;;
3257;SDS011;1641;51.306;12.384;2023-08-07T06:15:05;4.13;;;2.00;;
3257;SDS011;1641;51.306;12.384;2023-08-07T06:17:31;3.67;;;2.40;;
3257;SDS011;1641;51.306;12.384;2023-08-07T06:19:56;5.25;;;2.10;;
3257;SDS011;1641;51.306;12.384;2023-08-07T06:22:22;2.40;;;1.90;;
3257;SDS011;1641;51.306;12.384;2023-08-07T06:24:47;4.03;;;2.70;;
3257;SDS011;1641;51.306;12.384;2023-08-07T06:27:12;5.82;;;1.60;;
3257;SDS011;1641;51.306;12.384;2023-08-07T06:29:38;2.20;;;1.88;;
3257;SDS011;1641;51.306;12.384;2023-08-07T06:32:03;3.60;;;1.95;;
3257;SDS011;1641;51.306;12.384;2023-08-07T06:34:29;4.18;;;1.95;;
3257;SDS011;1641;51.306;12.384;2023-08-07T06:36:54;4.03;;;2.13;;
3257;SDS011;1641;51.306;12.384;2023-08-07T06:39:20;3.10;;;1.75;;
3257;SDS011;1641;51.306;12.384;2023-08-07T06:41:45;3.83;;;1.60;;
3257;SDS011;1641;51.306;12.384;2023-08-07T06:44:10;2.92;;;1.90;;
3257;SDS011;1641;51.306;12.384;2023-08-07T06:46:36;7.22;;;2.15;;
3257;SDS011;1641;51.306;12.384;2023-08-07T06:49:01;2.92;;;1.40;;
3257;SDS011;1641;51.306;12.384;2023-08-07T06:51:26;3.13;;;1.70;;
3257;SDS011;1641;51.306;12.384;2023-08-07T06:53:52;2.85;;;1.60;;
3257;SDS011;1641;51.306;12.384;2023-08-07T06:56:17;2.20;;;1.40;;
3257;SDS011;1641;51.306;12.384;2023-08-07T06:58:43;2.35;;;1.30;;
3257;SDS011;1641;51.306;12.384;2023-08-07T07:01:08;2.45;;;1.40;;
3257;SDS011;1641;51.306;12.384;2023-08-07T07:03:33;2.63;;;0.80;;
3257;SDS011;1641;51.306;12.384;2023-08-07T07:05:59;1.88;;;1.20;;
3257;SDS011;1641;51.306;12.384;2023-08-07T07:08:24;1.42;;;0.80;;
3257;SDS011;1641;51.306;12.384;2023-08-07T07:10:49;0.80;;;0.80;;
3257;SDS011;1641;51.306;12.384;2023-08-07T07:13:15;1.58;;;0.95;;
3257;SDS011;1641;51.306;12.384;2023-08-07T07:15:40;1.23;;;0.80;;
3257;SDS011;1641;51.306;12.384;2023-08-07T07:18:05;0.80;;;0.75;;
3257;SDS011;1641;51.306;12.384;2023-08-07T07:20:31;1.88;;;0.60;;
3257;SDS011;1641;51.306;12.384;2023-08-07T07:22:56;4.13;;;1.00;;
3257;SDS011;1641;51.306;12.384;2023-08-07T07:25:22;2.72;;;0.77;;
3257;SDS011;1641;51.306;12.384;2023-08-07T07:27:47;2.17;;;0.90;;
3257;SDS011;1641;51.306;12.384;2023-08-07T07:30:12;3.08;;;0.80;;
3257;SDS011;1641;51.306;12.384;2023-08-07T07:32:38;1.90;;;0.75;;
3257;SDS011;1641;51.306;12.384;2023-08-07T07:35:03;1.00;;;0.90;;
3257;SDS011;1641;51.306;12.384;2023-08-07T07:37:30;2.05;;;0.73;;
3257;SDS011;1641;51.306;12.384;2023-08-07T07:39:56;1.17;;;0.80;;
3257;SDS011;1641;51.306;12.384;2023-08-07T07:42:21;11.48;;;0.93;;
3257;SDS011;1641;51.306;12.384;2023-08-07T07:44:46;2.03;;;1.15;;
3257;SDS011;1641;51.306;12.384;2023-08-07T07:47:12;1.83;;;0.80;;
3257;SDS011;1641;51.306;12.384;2023-08-07T07:49:38;2.35;;;0.88;;
3257;SDS011;1641;51.306;12.384;2023-08-07T07:52:03;1.65;;;1.42;;
3257;SDS011;1641;51.306;12.384;2023-08-07T07:54:29;1.17;;;0.90;;
3257;SDS011;1641;51.306;12.384;2023-08-07T07:56:55;1.52;;;0.80;;
3257;SDS011;1641;51.306;12.384;2023-08-07T07:59:20;0.80;;;0.80;;
3257;SDS011;1641;51.306;12.384;2023-08-07T08:01:45;1.83;;;0.80;;
3257;SDS011;1641;51.306;12.384;2023-08-07T08:04:11;1.83;;;0.70;;
3257;SDS011;1641;51.306;12.384;2023-08-07T08:06:36;1.83;;;0.63;;
3257;SDS011;1641;51.306;12.384;2023-08-07T08:09:02;0.90;;;0.70;;
3257;SDS011;1641;51.306;12.384;2023-08-07T08:11:29;1.00;;;0.73;;
3257;SDS011;1641;51.306;12.384;2023-08-07T08:13:55;5.22;;;0.93;;
3257;SDS011;1641;51.306;12.384;2023-08-07T08:16:20;0.80;;;0.80;;
3257;SDS011;1641;51.306;12.384;2023-08-07T08:18:45;1.83;;;0.80;;
3257;SDS011;1641;51.306;12.384;2023-08-07T08:21:11;1.42;;;0.70;;
3257;SDS011;1641;51.306;12.384;2023-08-07T08:23:36;1.70;;;0.82;;
3257;SDS011;1641;51.306;12.384;2023-08-07T08:26:01;1.58;;;0.90;;
3257;SDS011;1641;51.306;12.384;2023-08-07T08:28:27;0.80;;;0.80;;
3257;SDS011;1641;51.306;12.384;2023-08-07T08:30:52;1.92;;;0.85;;
3257;SDS011;1641;51.306;12.384;2023-08-07T08:33:18;3.42;;;1.20;;
3257;SDS011;1641;51.306;12.384;2023-08-07T08:35:43;4.72;;;0.82;;
3257;SDS011;1641;51.306;12.384;2023-08-07T08:38:08;0.85;;;0.70;;
3257;SDS011;1641;51.306;12.384;2023-08-07T08:40:34;1.20;;;1.10;;
3257;SDS011;1641;51.306;12.384;2023-08-07T08:43:02;3.95;;;0.90;;
3257;SDS011;1641;51.306;12.384;2023-08-07T08:45:30;2.33;;;0.60;;
3257;SDS011;1641;51.306;12.384;2023-08-07T08:48:00;2.25;;;0.70;;
3257;SDS011;1641;51.306;12.384;2023-08-07T08:50:32;4.72;;;0.93;;
3257;SDS011;1641;51.306;12.384;2023-08-07T08:52:58;1.00;;;0.80;;
3257;SDS011;1641;51.306;12.384;2023-08-07T08:55:24;1.48;;;0.85;;
3257;SDS011;1641;51.306;12.384;2023-08-07T08:57:51;2.65;;;0.75;;
3257;SDS011;1641;51.306;12.384;2023-08-07T09:00:21;1.45;;;1.05;;
3257;SDS011;1641;51.306;12.384;2023-08-07T09:02:50;0.90;;;0.80;;
3257;SDS011;1641;51.306;12.384;2023-08-07T09:05:17;1.15;;;0.80;;
3257;SDS011;1641;51.306;12.384;2023-08-07T09:07:44;0.80;;;0.80;;
3257;SDS011;1641;51.306;12.384;2023-08-07T09:10:11;1.83;;;1.00;;
3257;SDS011;1641;51.306;12.384;2023-08-07T09:12:40;1.92;;;1.10;;
3257;SDS011;1641;51.306;12.384;2023-08-07T09:15:19;0.98;;;0.70;;
3257;SDS011;1641;51.306;12.384;2023-08-07T09:17:45;1.35;;;0.90;;
3257;SDS011;1641;51.306;12.384;2023-08-07T09:20:11;1.33;;;0.90;;
3257;SDS011;1641;51.306;12.384;2023-08-07T09:22:41;0.80;;;0.73;;
3257;SDS011;1641;51.306;12.384;2023-08-07T09:25:07;1.63;;;1.17;;
3257;SDS011;1641;51.306;12.384;2023-08-07T09:27:34;0.63;;;0.50;;
3257;SDS011;1641;51.306;12.384;2023-08-07T09:30:01;1.35;;;0.80;;
3257;SDS011;1641;51.306;12.384;2023-08-07T09:32:27;1.52;;;0.80;;
3257;SDS011;1641;51.306;12.384;2023-08-07T09:34:53;1.02;;;0.70;;
3257;SDS011;1641;51.306;12.384;2023-08-07T09:37:18;1.50;;;1.05;;
3257;SDS011;1641;51.306;12.384;2023-08-07T09:39:43;2.03;;;0.70;;
3257;SDS011;1641;51.306;12.384;2023-08-07T09:42:15;0.73;;;0.73;;
3257;SDS011;1641;51.306;12.384;2023-08-07T09:44:41;1.38;;;0.88;;
3257;SDS011;1641;51.306;12.384;2023-08-07T09:47:14;0.82;;;0.60;;
3257;SDS011;1641;51.306;12.384;2023-08-07T09:49:41;0.60;;;0.60;;
3257;SDS011;1641;51.306;12.384;2023-08-07T09:52:14;1.63;;;0.70;;
3257;SDS011;1641;51.306;12.384;2023-08-07T09:54:40;1.90;;;0.85;;
3257;SDS011;1641;51.306;12.384;2023-08-07T09:57:06;3.65;;;0.60;;
3257;SDS011;1641;51.306;12.384;2023-08-07T09:59:32;0.50;;;0.50;;
3257;SDS011;1641;51.306;12.384;2023-08-07T10:01:59;1.52;;;0.50;;
3257;SDS011;1641;51.306;12.384;2023-08-07T10:04:25;1.25;;;0.30;;
3257;SDS011;1641;51.306;12.384;2023-08-07T10:06:51;0.82;;;0.40;;
3257;SDS011;1641;51.306;12.384;2023-08-07T10:09:16;2.65;;;0.75;;
3257;SDS011;1641;51.306;12.384;2023-08-07T10:11:42;2.30;;;0.50;;
3257;SDS011;1641;51.306;12.384;2023-08-07T10:14:11;0.55;;;0.40;;
3257;SDS011;1641;51.306;12.384;2023-08-07T10:16:38;0.43;;;0.43;;
3257;SDS011;1641;51.306;12.384;2023-08-07T10:19:06;0.50;;;0.40;;
3257;SDS011;1641;51.306;12.384;2023-08-07T10:21:35;0.40;;;0.40;;
3257;SDS011;1641;51.306;12.384;2023-08-07T10:24:06;0.85;;;0.40;;
3257;SDS011;1641;51.306;12.384;2023-08-07T10:26:33;0.85;;;0.40;;
3257;SDS011;1641;51.306;12.384;2023-08-07T10:29:00;2.85;;;0.50;;
3257;SDS011;1641;51.306;12.384;2023-08-07T10:31:29;0.50;;;0.50;;
3257;SDS011;1641;51.306;12.384;2023-08-07T10:33:56;2.88;;;0.52;;
3257;SDS011;1641;51.306;12.384;2023-08-07T10:36:22;0.60;;;0.60;;
3257;SDS011;1641;51.306;12.384;2023-08-07T10:38:49;0.50;;;0.50;;
3257;SDS011;1641;51.306;12.384;2023-08-07T10:41:16;1.95;;;0.52;;
3257;SDS011;1641;51.306;12.384;2023-08-07T10:43:43;1.15;;;0.70;;
3257;SDS011;1641;51.306;12.384;2023-08-07T10:46:11;1.42;;;0.65;;
3257;SDS011;1641;51.306;12.384;2023-08-07T10:48:38;0.77;;;0.63;;
3257;SDS011;1641;51.306;12.384;2023-08-07T10:51:04;0.68;;;0.68;;
3257;SDS011;1641;51.306;12.384;2023-08-07T10:53:31;0.40;;;0.40;;
3257;SDS011;1641;51.306;12.384;2023-08-07T10:56:07;0.93;;;0.50;;
3257;SDS011;1641;51.306;12.384;2023-08-07T10:58:35;0.43;;;0.43;;
3257;SDS011;1641;51.306;12.384;2023-08-07T11:03:59;1.40;;;0.80;;
3257;SDS011;1641;51.306;12.384;2023-08-07T11:06:32;2.72;;;0.70;;
3257;SDS011;1641;51.306;12.384;2023-08-07T11:08:59;0.90;;;0.65;;
3257;SDS011;1641;51.306;12.384;2023-08-07T11:11:32;1.00;;;0.82;;
3257;SDS011;1641;51.306;12.384;2023-08-07T11:14:04;2.58;;;1.27;;
3257;SDS011;1641;51.306;12.384;2023-08-07T11:16:34;0.73;;;0.63;;
3257;SDS011;1641;51.306;12.384;2023-08-07T11:19:00;5.35;;;0.77;;
3257;SDS011;1641;51.306;12.384;2023-08-07T11:21:25;0.93;;;0.52;;
3257;SDS011;1641;51.306;12.384;2023-08-07T11:23:51;1.38;;;0.70;;
3257;SDS011;1641;51.306;12.384;2023-08-07T11:26:16;1.00;;;0.70;;
3257;SDS011;1641;51.306;12.384;2023-08-07T11:28:42;1.52;;;0.70;;
3257;SDS011;1641;51.306;12.384;2023-08-07T11:31:08;0.93;;;0.80;;
3257;SDS011;1641;51.306;12.384;2023-08-07T11:33:33;3.60;;;0.70;;
3257;SDS011;1641;51.306;12.384;2023-08-07T11:36:01;0.52;;;0.52;;
3257;SDS011;1641;51.306;12.384;2023-08-07T11:38:37;0.93;;;0.70;;
3257;SDS011;1641;51.306;12.384;2023-08-07T11:41:05;0.75;;;0.40;;
3257;SDS011;1641;51.306;12.384;2023-08-07T11:43:32;0.63;;;0.63;;
3257;SDS011;1641;51.306;12.384;2023-08-07T11:45:59;0.40;;;0.40;;
3257;SDS011;1641;51.306;12.384;2023-08-07T11:48:26;2.80;;;1.90;;
3257;SDS011;1641;51.306;12.384;2023-08-07T11:50:53;1.85;;;0.93;;
3257;SDS011;1641;51.306;12.384;2023-08-07T11:53:19;1.08;;;0.60;;
3257;SDS011;1641;51.306;12.384;2023-08-07T11:55:51;1.05;;;0.50;;
3257;SDS011;1641;51.306;12.384;2023-08-07T11:58:21;3.55;;;1.00;;
3257;SDS011;1641;51.306;12.384;2023-08-07T12:00:49;0.60;;;0.60;;
3257;SDS011;1641;51.306;12.384;2023-08-07T12:06:16;0.95;;;0.40;;
3257;SDS011;1641;51.306;12.384;2023-08-07T12:08:42;1.08;;;0.57;;
3257;SDS011;1641;51.306;12.384;2023-08-07T12:11:11;2.60;;;0.50;;
3257;SDS011;1641;51.306;12.384;2023-08-07T12:13:43;0.55;;;0.50;;
3257;SDS011;1641;51.306;12.384;2023-08-07T12:16:10;3.70;;;0.30;;
3257;SDS011;1641;51.306;12.384;2023-08-07T12:18:42;1.17;;;0.60;;
3257;SDS011;1641;51.306;12.384;2023-08-07T12:21:22;0.40;;;0.38;;
3257;SDS011;1641;51.306;12.384;2023-08-07T12:23:49;1.63;;;0.35;;
3257;SDS011;1641;51.306;12.384;2023-08-07T12:26:15;0.88;;;0.40;;
3257;SDS011;1641;51.306;12.384;2023-08-07T12:28:41;0.70;;;0.60;;
3257;SDS011;1641;51.306;12.384;2023-08-07T12:31:13;0.73;;;0.52;;
3257;SDS011;1641;51.306;12.384;2023-08-07T12:33:38;1.05;;;0.63;;
3257;SDS011;1641;51.306;12.384;2023-08-07T12:36:04;1.08;;;0.52;;
3257;SDS011;1641;51.306;12.384;2023-08-07T12:38:32;2.95;;;0.60;;
3257;SDS011;1641;51.306;12.384;2023-08-07T12:40:58;0.63;;;0.55;;
3257;SDS011;1641;51.306;12.384;2023-08-07T12:43:23;4.18;;;0.70;;
3257;SDS011;1641;51.306;12.384;2023-08-07T12:45:51;0.40;;;0.40;;
3257;SDS011;1641;51.306;12.384;2023-08-07T12:48:18;0.57;;;0.50;;
3257;SDS011;1641;51.306;12.384;2023-08-07T12:50:44;0.77;;;0.50;;
3257;SDS011;1641;51.306;12.384;2023-08-07T12:53:12;3.22;;;0.50;;
3257;SDS011;1641;51.306;12.384;2023-08-07T12:55:38;0.75;;;0.60;;
3257;SDS011;1641;51.306;12.384;2023-08-07T12:58:06;0.55;;;0.55;;
3257;SDS011;1641;51.306;12.384;2023-08-07T13:00:41;1.83;;;0.60;;
3257;SDS011;1641;51.306;12.384;2023-08-07T13:03:24;0.85;;;0.85;;
3257;SDS011;1641;51.306;12.384;2023-08-07T13:05:53;3.22;;;0.60;;
3257;SDS011;1641;51.306;12.384;2023-08-07T13:08:24;1.00;;;0.73;;
3257;SDS011;1641;51.306;12.384;2023-08-07T13:13:27;1.17;;;0.70;;
3257;SDS011;1641;51.306;12.384;2023-08-07T13:15:59;2.70;;;1.05;;
3257;SDS011;1641;51.306;12.384;2023-08-07T13:18:24;1.02;;;0.60;;
3257;SDS011;1641;51.306;12.384;2023-08-07T13:20:53;0.57;;;0.45;;
3257;SDS011;1641;51.306;12.384;2023-08-07T13:23:22;2.58;;;0.60;;
3257;SDS011;1641;51.306;12.384;2023-08-07T13:28:40;0.73;;;0.50;;
3257;SDS011;1641;51.306;12.384;2023-08-07T13:31:06;1.25;;;0.70;;
3257;SDS011;1641;51.306;12.384;2023-08-07T13:33:31;2.42;;;0.57;;
3257;SDS011;1641;51.306;12.384;2023-08-07T13:35:59;1.08;;;0.60;;
3257;SDS011;1641;51.306;12.384;2023-08-07T13:38:37;0.50;;;0.50;;
3257;SDS011;1641;51.306;12.384;2023-08-07T13:41:02;1.77;;;0.60;;
3257;SDS011;1641;51.306;12.384;2023-08-07T13:43:27;0.55;;;0.55;;
3257;SDS011;1641;51.306;12.384;2023-08-07T13:45:56;2.55;;;0.63;;
3257;SDS011;1641;51.306;12.384;2023-08-07T13:48:24;3.47;;;0.60;;
3257;SDS011;1641;51.306;12.384;2023-08-07T13:50:52;0.70;;;0.68;;
3257;SDS011;1641;51.306;12.384;2023-08-07T13:53:27;3.40;;;0.60;;
3257;SDS011;1641;51.306;12.384;2023-08-07T13:55:54;2.30;;;1.17;;
3257;SDS011;1641;51.306;12.384;2023-08-07T13:58:22;3.25;;;1.83;;
3257;SDS011;1641;51.306;12.384;2023-08-07T14:00:47;3.13;;;1.27;;
3257;SDS011;1641;51.306;12.384;2023-08-07T14:03:15;4.15;;;0.88;;
3257;SDS011;1641;51.306;12.384;2023-08-07T14:05:40;3.80;;;1.10;;
3257;SDS011;1641;51.306;12.384;2023-08-07T14:08:06;3.47;;;0.90;;
3257;SDS011;1641;51.306;12.384;2023-08-07T14:10:40;2.63;;;1.08;;
3257;SDS011;1641;51.306;12.384;2023-08-07T14:13:06;2.80;;;1.13;;
3257;SDS011;1641;51.306;12.384;2023-08-07T14:15:32;3.60;;;1.08;;
3257;SDS011;1641;51.306;12.384;2023-08-07T14:18:00;4.60;;;1.33;;
3257;SDS011;1641;51.306;12.384;2023-08-07T14:20:28;2.28;;;1.08;;
3257;SDS011;1641;51.306;12.384;2023-08-07T14:22:54;5.03;;;1.10;;
3257;SDS011;1641;51.306;12.384;2023-08-07T14:25:19;2.88;;;1.20;;
3257;SDS011;1641;51.306;12.384;2023-08-07T14:27:48;2.95;;;1.30;;
3257;SDS011;1641;51.306;12.384;2023-08-07T14:30:16;3.40;;;1.15;;
3257;SDS011;1641;51.306;12.384;2023-08-07T14:32:45;2.30;;;0.90;;
3257;SDS011;1641;51.306;12.384;2023-08-07T14:35:15;1.73;;;0.93;;
3257;SDS011;1641;51.306;12.384;2023-08-07T14:37:46;1.75;;;0.50;;
3257;SDS011;1641;51.306;12.384;2023-08-07T14:40:13;3.45;;;1.00;;
3257;SDS011;1641;51.306;12.384;2023-08-07T14:42:41;2.78;;;1.20;;
3257;SDS011;1641;51.306;12.384;2023-08-07T14:45:10;2.53;;;0.98;;
3257;SDS011;1641;51.306;12.384;2023-08-07T14:47:36;4.32;;;1.40;;
3257;SDS011;1641;51.306;12.384;2023-08-07T14:50:01;3.15;;;1.20;;
3257;SDS011;1641;51.306;12.384;2023-08-07T14:52:26;5.50;;;1.40;;
3257;SDS011;1641;51.306;12.384;2023-08-07T14:54:52;2.50;;;1.30;;
3257;SDS011;1641;51.306;12.384;2023-08-07T14:57:23;2.22;;;0.90;;
3257;SDS011;1641;51.306;12.384;2023-08-07T14:59:52;1.15;;;1.00;;
3257;SDS011;1641;51.306;12.384;2023-08-07T15:02:17;3.47;;;1.10;;
3257;SDS011;1641;51.306;12.384;2023-08-07T15:04:42;6.35;;;2.28;;
3257;SDS011;1641;51.306;12.384;2023-08-07T15:07:08;3.45;;;1.38;;
3257;SDS011;1641;51.306;12.384;2023-08-07T15:09:42;3.45;;;0.90;;
3257;SDS011;1641;51.306;12.384;2023-08-07T15:12:08;1.73;;;0.90;;
3257;SDS011;1641;51.306;12.384;2023-08-07T15:14:40;4.00;;;0.85;;
3257;SDS011;1641;51.306;12.384;2023-08-07T15:19:56;1.47;;;0.90;;
3257;SDS011;1641;51.306;12.384;2023-08-07T15:22:22;1.27;;;0.95;;
3257;SDS011;1641;51.306;12.384;2023-08-07T15:24:53;1.65;;;1.05;;